Time;durP1;ratioP1;P1;durP2;ratioP2;P2;SDS_P1;SDS_P2;PMS_P1;PMS_P2;Temp;Humidity;BMP_temperature;BMP_pressure;BME280_temperature;BME280_humidity;BME280_pressure;Samples;Min_cycle;Max_cycle;Signal;HPM_P1;HPM_P2
2022/11/07 00:01:16;;;;;;;19.42;14.20;;;5.20;99.90;;;;;;5053619;28;20037;-51
2022/11/07 00:03:42;;;;;;;19.95;15.45;;;5.20;99.90;;;;;;5053315;28;20017;-51
2022/11/07 00:06:08;;;;;;;19.52;15.35;;;5.30;99.90;;;;;;5052256;28;20013;-50
2022/11/07 00:08:33;;;;;;;20.65;14.55;;;5.30;99.90;;;;;;5053070;28;20119;-50
2022/11/07 00:11:03;;;;;;;20.33;14.40;;;5.30;99.90;;;;;;5053231;28;20723;-50
2022/11/07 00:13:30;;;;;;;20.00;15.05;;;5.30;99.90;;;;;;5053234;28;20119;-50
2022/11/07 00:16:00;;;;;;;20.88;14.60;;;5.40;99.90;;;;;;5053260;28;20025;-50
2022/11/07 00:18:26;;;;;;;25.63;14.27;;;5.40;99.90;;;;;;5053038;28;20108;-52
2022/11/07 00:20:51;;;;;;;17.92;14.00;;;5.40;99.90;;;;;;5053345;28;20105;-49
2022/11/07 00:23:17;;;;;;;18.38;14.82;;;5.50;99.90;;;;;;5053088;28;20017;-50
2022/11/07 00:25:43;;;;;;;19.40;15.15;;;5.50;99.90;;;;;;5053013;28;20027;-50
2022/11/07 00:28:08;;;;;;;21.52;16.40;;;5.50;99.90;;;;;;5053200;28;20029;-51
2022/11/07 00:30:34;;;;;;;20.83;14.52;;;5.60;99.90;;;;;;5051614;28;20021;-50
2022/11/07 00:32:59;;;;;;;17.67;12.88;;;5.60;99.90;;;;;;5053035;28;20032;-50
2022/11/07 00:35:25;;;;;;;18.77;14.25;;;5.60;99.90;;;;;;5052896;28;20545;-51
2022/11/07 00:37:53;;;;;;;18.67;14.43;;;5.70;99.90;;;;;;5052765;28;20025;-50
2022/11/07 00:40:19;;;;;;;16.90;12.48;;;5.60;99.90;;;;;;5052851;28;20029;-52
2022/11/07 00:42:45;;;;;;;17.17;12.95;;;5.70;99.90;;;;;;5052963;28;20036;-51
2022/11/07 00:45:12;;;;;;;18.77;12.52;;;5.70;99.90;;;;;;5052719;28;20488;-50
2022/11/07 00:47:38;;;;;;;15.98;13.23;;;5.80;99.90;;;;;;5052461;28;20115;-50
2022/11/07 00:50:04;;;;;;;21.77;12.80;;;5.80;99.90;;;;;;5052635;28;20799;-51
2022/11/07 00:52:29;;;;;;;17.05;12.90;;;5.80;99.90;;;;;;5052359;28;20112;-52
2022/11/07 00:54:55;;;;;;;14.85;12.13;;;5.80;99.90;;;;;;5052735;28;20021;-50
2022/11/07 00:57:20;;;;;;;11.05;8.00;;;5.90;99.90;;;;;;5052383;28;20017;-52
2022/11/07 00:59:46;;;;;;;13.23;7.20;;;6.00;99.90;;;;;;5052458;28;20036;-50
2022/11/07 01:02:12;;;;;;;10.48;7.07;;;6.20;99.90;;;;;;5052411;28;20021;-50
2022/11/07 01:07:21;;;;;;;7.38;6.60;;;6.50;99.90;;;;;;5052091;28;20103;-49
2022/11/07 01:09:47;;;;;;;8.75;6.10;;;6.60;99.90;;;;;;5052203;28;20052;-51
2022/11/07 01:12:13;;;;;;;7.70;5.47;;;6.70;99.90;;;;;;5052341;28;20079;-50
2022/11/07 01:14:38;;;;;;;9.65;6.22;;;6.80;99.90;;;;;;5052111;28;20032;-50
2022/11/07 01:17:04;;;;;;;7.38;5.70;;;6.80;99.90;;;;;;5052371;28;20025;-51
2022/11/07 01:19:30;;;;;;;6.40;5.28;;;6.80;99.90;;;;;;5051735;28;20468;-52
2022/11/07 01:21:55;;;;;;;6.78;5.88;;;6.90;99.90;;;;;;5051481;28;20047;-50
2022/11/07 01:24:21;;;;;;;7.93;4.90;;;6.90;99.90;;;;;;5051938;28;20060;-50
2022/11/07 01:26:47;;;;;;;7.35;4.82;;;7.00;99.90;;;;;;5052004;28;20036;-52
2022/11/07 01:29:14;;;;;;;7.20;5.00;;;7.10;99.90;;;;;;5051934;28;20056;-50
2022/11/07 01:31:40;;;;;;;5.80;5.00;;;7.10;99.90;;;;;;5051855;28;20083;-52
2022/11/07 01:34:05;;;;;;;7.90;5.57;;;7.10;99.90;;;;;;5051865;28;20027;-51
2022/11/07 01:36:31;;;;;;;6.15;5.55;;;7.10;99.90;;;;;;5051649;28;20024;-50
2022/11/07 01:38:57;;;;;;;5.97;4.68;;;7.10;99.90;;;;;;5051647;28;20036;-50
2022/11/07 01:41:26;;;;;;;6.30;5.22;;;7.10;99.90;;;;;;5051658;28;20021;-51
2022/11/07 01:44:02;;;;;;;5.63;5.03;;;7.20;99.90;;;;;;5051694;28;20055;-49
2022/11/07 01:46:36;;;;;;;7.20;4.72;;;7.10;99.90;;;;;;5051351;28;20029;-49
2022/11/07 01:49:16;;;;;;;7.00;4.65;;;7.10;99.90;;;;;;5051777;28;20614;-49
2022/11/07 01:51:46;;;;;;;4.88;4.47;;;7.10;99.90;;;;;;5064859;28;20086;-52
2022/11/07 01:54:14;;;;;;;4.95;4.45;;;7.20;99.90;;;;;;5071688;28;20032;-52
2022/11/07 01:56:43;;;;;;;4.93;4.18;;;7.20;99.90;;;;;;5070055;28;20094;-50
2022/11/07 01:59:17;;;;;;;6.80;4.65;;;7.20;99.90;;;;;;5071506;28;20024;-50
2022/11/07 02:01:43;;;;;;;4.78;4.18;;;7.20;99.90;;;;;;5071458;28;20369;-50
2022/11/07 02:04:09;;;;;;;4.68;4.28;;;7.20;99.90;;;;;;5071586;28;20025;-52
2022/11/07 02:06:46;;;;;;;5.57;4.63;;;7.20;99.90;;;;;;5071317;28;20020;-50
2022/11/07 02:09:13;;;;;;;4.85;4.38;;;7.20;99.90;;;;;;5071327;28;20052;-51
2022/11/07 02:11:38;;;;;;;6.47;4.97;;;7.20;99.90;;;;;;5071150;28;20068;-50
2022/11/07 02:14:04;;;;;;;5.53;4.93;;;7.10;99.90;;;;;;5071491;28;20067;-50
2022/11/07 02:16:33;;;;;;;4.80;4.30;;;7.10;99.90;;;;;;5071315;28;20663;-50
2022/11/07 02:18:59;;;;;;;5.07;4.30;;;7.10;99.90;;;;;;5070083;28;20032;-50
2022/11/07 02:21:51;;;;;;;6.35;5.15;;;7.10;99.90;;;;;;5071293;28;20020;-52
2022/11/07 02:24:23;;;;;;;4.65;4.18;;;7.10;99.90;;;;;;5069995;28;20111;-50
2022/11/07 02:26:49;;;;;;;5.30;4.80;;;7.20;99.90;;;;;;5069959;28;20067;-53
2022/11/07 02:29:15;;;;;;;5.35;4.85;;;7.20;99.90;;;;;;5071239;28;20068;-51
2022/11/07 02:31:40;;;;;;;5.10;4.60;;;7.20;99.90;;;;;;5071124;28;20046;-49
2022/11/07 02:34:06;;;;;;;4.68;4.25;;;7.20;99.90;;;;;;5072440;28;20024;-52
2022/11/07 02:36:32;;;;;;;4.60;4.20;;;7.20;99.90;;;;;;5075069;28;20384;-50
2022/11/07 02:38:59;;;;;;;6.60;5.30;;;7.20;99.90;;;;;;5075083;28;20039;-51
2022/11/07 02:41:30;;;;;;;6.35;5.00;;;7.20;99.90;;;;;;5075037;28;20028;-52
2022/11/07 02:44:05;;;;;;;5.03;4.53;;;7.20;99.90;;;;;;5075153;28;20020;-53
2022/11/07 02:46:31;;;;;;;6.43;4.47;;;7.20;99.90;;;;;;5074772;28;20033;-52
2022/11/07 02:48:59;;;;;;;4.70;4.30;;;7.20;99.90;;;;;;5074939;28;20025;-52
2022/11/07 02:51:25;;;;;;;4.90;4.38;;;7.20;99.90;;;;;;5074615;28;20065;-52
2022/11/07 02:53:51;;;;;;;4.70;4.03;;;7.30;99.90;;;;;;5074053;28;20039;-51
2022/11/07 02:56:18;;;;;;;6.78;5.05;;;7.30;99.90;;;;;;5073972;28;20114;-51
2022/11/07 02:58:44;;;;;;;6.90;4.03;;;7.30;99.90;;;;;;5074223;28;20037;-52
2022/11/07 03:01:11;;;;;;;5.63;5.00;;;7.30;99.90;;;;;;5074070;28;20474;-50
2022/11/07 03:03:40;;;;;;;7.35;4.75;;;7.30;99.90;;;;;;5073482;28;20037;-51
2022/11/07 03:06:08;;;;;;;4.93;4.13;;;7.30;99.90;;;;;;5074007;28;20784;-49
2022/11/07 03:08:34;;;;;;;5.05;3.95;;;7.30;99.90;;;;;;5074167;28;20056;-50
2022/11/07 03:11:00;;;;;;;6.57;5.25;;;7.40;99.90;;;;;;5074511;28;20357;-51
2022/11/07 03:13:26;;;;;;;5.75;4.60;;;7.40;99.90;;;;;;5074409;28;20055;-53
2022/11/07 03:15:52;;;;;;;10.55;4.78;;;7.40;99.90;;;;;;5074493;28;20065;-50
2022/11/07 03:18:18;;;;;;;5.05;4.38;;;7.40;99.90;;;;;;5074319;28;20423;-51
2022/11/07 03:20:44;;;;;;;4.55;4.15;;;7.40;99.90;;;;;;5074244;28;20058;-50
2022/11/07 03:23:10;;;;;;;4.53;3.80;;;7.40;99.90;;;;;;5074456;28;20021;-50
2022/11/07 03:25:36;;;;;;;4.55;4.05;;;7.40;99.90;;;;;;5074216;28;20024;-50
2022/11/07 03:28:01;;;;;;;4.40;4.00;;;7.40;99.90;;;;;;5074314;28;20040;-51
2022/11/07 03:30:27;;;;;;;5.50;5.00;;;7.40;99.90;;;;;;5073976;28;20067;-52
2022/11/07 03:32:53;;;;;;;4.80;4.40;;;7.40;99.90;;;;;;5074135;28;20034;-50
2022/11/07 03:35:19;;;;;;;5.65;4.53;;;7.40;99.90;;;;;;5074182;28;20036;-52
2022/11/07 03:37:46;;;;;;;7.80;4.40;;;7.40;99.90;;;;;;5074106;28;20123;-51
2022/11/07 03:40:12;;;;;;;4.68;3.95;;;7.40;99.90;;;;;;5074042;28;20020;-51
2022/11/07 03:42:42;;;;;;;5.25;4.75;;;7.40;99.90;;;;;;5073965;28;20392;-50
2022/11/07 03:45:10;;;;;;;6.50;4.45;;;7.50;99.90;;;;;;5073365;28;20438;-51
2022/11/07 03:47:37;;;;;;;6.03;4.80;;;7.50;99.90;;;;;;5073668;28;20027;-50
2022/11/07 03:50:04;;;;;;;5.15;4.70;;;7.50;99.90;;;;;;5073966;28;20032;-50
2022/11/07 03:52:30;;;;;;;5.45;4.15;;;7.50;99.90;;;;;;5073561;28;20494;-50
2022/11/07 03:54:55;;;;;;;4.60;4.00;;;7.50;99.90;;;;;;5073878;28;20024;-50
2022/11/07 03:57:21;;;;;;;5.93;4.45;;;7.60;99.90;;;;;;5073570;28;20024;-51
2022/11/07 03:59:47;;;;;;;5.13;4.63;;;7.50;99.90;;;;;;5073625;28;20028;-52
2022/11/07 04:02:12;;;;;;;7.97;4.72;;;7.50;99.90;;;;;;5073632;28;20025;-50
2022/11/07 04:04:38;;;;;;;4.57;3.88;;;7.50;99.90;;;;;;5073517;28;20036;-51
2022/11/07 04:07:04;;;;;;;6.55;4.53;;;7.60;99.90;;;;;;5073592;28;20024;-50
2022/11/07 04:09:29;;;;;;;8.25;4.90;;;7.60;99.90;;;;;;5073172;28;20048;-50
2022/11/07 04:17:24;;;;;;;9.13;4.45;;;7.60;99.90;;;;;;5073172;28;20039;-52
2022/11/07 04:19:56;;;;;;;5.03;4.53;;;7.60;99.90;;;;;;5073190;28;20455;-51
2022/11/07 04:22:25;;;;;;;4.70;4.28;;;7.60;99.90;;;;;;5073132;28;20028;-50
2022/11/07 04:24:51;;;;;;;6.03;5.18;;;7.60;99.90;;;;;;5073126;28;20479;-50
2022/11/07 04:32:54;;;;;;;7.55;5.90;;;7.70;99.90;;;;;;5073301;28;20044;-50
2022/11/07 04:35:22;;;;;;;7.03;5.55;;;7.70;99.90;;;;;;5072907;28;20035;-50
2022/11/07 04:37:48;;;;;;;7.57;6.13;;;7.70;99.90;;;;;;5072824;28;20029;-50
2022/11/07 04:40:15;;;;;;;14.10;6.53;;;7.70;99.90;;;;;;5072968;28;20024;-51
2022/11/07 04:42:41;;;;;;;8.18;6.30;;;7.70;99.90;;;;;;5072757;28;20165;-52
2022/11/07 04:45:07;;;;;;;6.68;5.53;;;7.70;99.90;;;;;;5071342;28;20565;-52
2022/11/07 04:47:33;;;;;;;9.27;6.47;;;7.70;99.90;;;;;;5072598;28;20024;-50
2022/11/07 04:49:58;;;;;;;8.18;6.00;;;7.70;99.90;;;;;;5072494;28;20505;-50
2022/11/07 04:52:24;;;;;;;13.63;9.18;;;7.70;99.90;;;;;;5071083;28;20029;-50
2022/11/07 04:54:50;;;;;;;7.05;5.95;;;7.70;99.90;;;;;;5072553;28;20013;-51
2022/11/07 04:57:15;;;;;;;4.97;4.25;;;7.70;99.90;;;;;;5071616;28;20060;-50
2022/11/07 04:59:41;;;;;;;4.50;4.10;;;7.80;99.90;;;;;;5070862;28;20112;-50
2022/11/07 05:02:11;;;;;;;7.22;5.18;;;7.80;99.90;;;;;;5072355;28;20035;-49
2022/11/07 05:04:37;;;;;;;13.93;7.40;;;7.90;99.90;;;;;;5072268;28;20599;-49
2022/11/07 05:07:03;;;;;;;12.35;8.18;;;7.90;99.90;;;;;;5072340;28;20437;-51
2022/11/07 05:09:29;;;;;;;11.55;8.45;;;7.80;99.90;;;;;;5072076;28;20059;-50
2022/11/07 05:11:55;;;;;;;8.60;6.28;;;7.80;99.90;;;;;;5072240;28;20024;-50
2022/11/07 05:14:21;;;;;;;6.50;5.28;;;7.80;99.90;;;;;;5072193;28;20024;-50
2022/11/07 05:16:48;;;;;;;4.72;4.28;;;7.80;99.90;;;;;;5072086;28;20031;-50
2022/11/07 05:19:18;;;;;;;5.25;4.35;;;7.80;99.90;;;;;;5071991;28;20056;-51
2022/11/07 05:21:44;;;;;;;5.40;3.88;;;7.70;99.90;;;;;;5071872;28;20024;-50
2022/11/07 05:24:10;;;;;;;5.13;4.53;;;7.70;99.90;;;;;;5072046;28;20043;-50
2022/11/07 05:26:36;;;;;;;5.22;3.72;;;7.60;99.90;;;;;;5071897;28;20020;-52
2022/11/07 05:29:03;;;;;;;4.72;4.32;;;7.50;99.90;;;;;;5071965;28;20029;-49
2022/11/07 05:31:28;;;;;;;4.80;4.22;;;7.50;99.90;;;;;;5071632;28;20033;-51
2022/11/07 05:33:54;;;;;;;5.03;3.70;;;7.40;99.90;;;;;;5071853;28;20077;-49
2022/11/07 05:36:22;;;;;;;9.20;3.90;;;7.30;99.90;;;;;;5071684;28;20095;-51
2022/11/07 05:38:50;;;;;;;3.70;3.40;;;7.20;99.90;;;;;;5071763;28;20029;-51
2022/11/07 05:41:18;;;;;;;5.40;3.72;;;7.20;99.90;;;;;;5071831;28;20023;-53
2022/11/07 05:43:44;;;;;;;4.75;3.40;;;7.10;99.90;;;;;;5071682;28;20635;-50
2022/11/07 05:46:11;;;;;;;3.88;3.47;;;7.20;99.90;;;;;;5071660;28;20047;-50
2022/11/07 05:48:37;;;;;;;4.68;4.25;;;7.10;99.90;;;;;;5071524;28;20033;-50
2022/11/07 05:51:05;;;;;;;5.47;4.03;;;6.90;99.90;;;;;;5071743;28;20036;-51
2022/11/07 05:53:31;;;;;;;5.15;3.97;;;6.80;99.90;;;;;;5071436;28;20025;-50
2022/11/07 05:55:56;;;;;;;3.88;3.53;;;6.70;99.90;;;;;;5071232;28;20025;-50
2022/11/07 05:58:22;;;;;;;8.63;3.50;;;6.50;99.90;;;;;;5071320;28;20059;-50
2022/11/07 06:00:48;;;;;;;6.68;4.20;;;6.40;99.90;;;;;;5071447;28;20032;-51
2022/11/07 06:03:14;;;;;;;4.72;3.85;;;6.30;99.90;;;;;;5071451;28;20025;-51
2022/11/07 06:05:41;;;;;;;9.88;4.57;;;6.20;99.90;;;;;;5071310;28;20043;-53
2022/11/07 06:08:10;;;;;;;4.97;4.28;;;6.10;99.90;;;;;;5069628;28;20047;-50
2022/11/07 06:10:37;;;;;;;5.22;4.00;;;6.00;99.90;;;;;;5071217;28;20033;-50
2022/11/07 06:13:06;;;;;;;5.88;3.95;;;5.90;99.90;;;;;;5071172;28;20024;-50
2022/11/07 06:15:36;;;;;;;3.65;3.22;;;5.90;99.90;;;;;;5071130;28;20112;-50
2022/11/07 06:18:04;;;;;;;5.07;2.83;;;5.80;99.90;;;;;;5071148;28;20364;-50
2022/11/07 06:20:31;;;;;;;15.00;4.07;;;5.80;99.90;;;;;;5070970;28;20035;-50
2022/11/07 06:23:02;;;;;;;6.38;3.75;;;5.80;99.90;;;;;;5071187;28;20452;-50
2022/11/07 06:25:28;;;;;;;11.80;6.90;;;5.70;99.90;;;;;;5071103;28;20025;-50
2022/11/07 06:28:09;;;;;;;11.02;6.78;;;5.70;99.90;;;;;;5071022;28;20025;-50
2022/11/07 06:30:35;;;;;;;11.48;6.43;;;5.80;99.90;;;;;;5071108;28;20017;-51
2022/11/07 06:33:05;;;;;;;9.57;7.03;;;5.90;99.90;;;;;;5071126;28;20468;-51
2022/11/07 06:35:31;;;;;;;10.70;6.03;;;6.00;99.90;;;;;;5069609;28;20027;-51
2022/11/07 06:38:01;;;;;;;11.35;5.53;;;6.00;99.90;;;;;;5071089;28;20016;-50
2022/11/07 06:40:27;;;;;;;7.53;6.20;;;6.00;99.90;;;;;;5070804;28;20052;-50
2022/11/07 06:42:53;;;;;;;12.55;6.05;;;6.00;99.90;;;;;;5070612;28;20439;-52
2022/11/07 06:45:18;;;;;;;13.68;6.15;;;6.00;99.90;;;;;;5071120;28;20051;-51
2022/11/07 06:47:44;;;;;;;10.32;5.65;;;6.10;99.90;;;;;;5070945;28;20107;-50
2022/11/07 06:50:09;;;;;;;7.20;5.55;;;6.10;99.90;;;;;;5071181;28;20017;-50
2022/11/07 06:52:35;;;;;;;10.25;6.18;;;6.10;99.90;;;;;;5070752;28;20027;-50
2022/11/07 06:55:01;;;;;;;8.85;6.65;;;6.10;99.90;;;;;;5070999;28;20017;-50
2022/11/07 06:57:26;;;;;;;12.57;8.77;;;6.20;99.90;;;;;;5070707;28;20021;-51
2022/11/07 06:59:52;;;;;;;23.58;14.18;;;6.20;99.90;;;;;;5069585;28;20604;-51
2022/11/07 07:02:17;;;;;;;22.42;13.00;;;6.30;99.90;;;;;;5070913;28;20059;-53
2022/11/07 07:04:43;;;;;;;21.50;11.80;;;6.30;99.90;;;;;;5069531;28;20108;-49
2022/11/07 07:07:09;;;;;;;27.02;11.90;;;6.40;99.90;;;;;;5070995;28;20062;-51
2022/11/07 07:09:34;;;;;;;16.65;12.27;;;6.50;99.90;;;;;;5070430;28;20173;-50
2022/11/07 07:12:00;;;;;;;6.65;4.63;;;6.70;99.90;;;;;;5070456;28;20052;-50
2022/11/07 07:14:26;;;;;;;6.72;3.90;;;7.10;99.90;;;;;;5070472;28;20053;-49
2022/11/07 07:16:51;;;;;;;5.25;3.70;;;7.50;99.90;;;;;;5070706;28;20162;-52
2022/11/07 07:19:17;;;;;;;6.10;3.38;;;7.90;99.90;;;;;;5069915;28;20111;-62
2022/11/07 07:21:42;;;;;;;3.90;3.05;;;8.30;99.90;;;;;;5073749;28;20044;-53
2022/11/07 07:24:08;;;;;;;6.22;4.75;;;8.60;99.90;;;;;;5074017;28;20032;-51
2022/11/07 07:26:34;;;;;;;4.93;3.60;;;9.00;99.90;;;;;;5073752;28;20016;-51
2022/11/07 07:28:59;;;;;;;5.45;3.40;;;9.10;99.90;;;;;;5074142;28;20036;-50
2022/11/07 07:31:29;;;;;;;5.90;4.68;;;9.30;99.90;;;;;;5073819;28;20494;-52
2022/11/07 07:33:57;;;;;;;4.97;3.88;;;9.50;99.90;;;;;;5074189;28;20040;-50
2022/11/07 07:36:23;;;;;;;3.17;2.88;;;9.50;99.90;;;;;;5073750;28;20097;-50
2022/11/07 07:38:49;;;;;;;3.38;3.08;;;9.80;99.90;;;;;;5073995;28;20025;-49
2022/11/07 07:41:16;;;;;;;2.50;2.30;;;9.90;99.90;;;;;;5073788;28;20051;-49
2022/11/07 07:43:42;;;;;;;2.83;2.30;;;10.10;99.90;;;;;;5073513;28;20096;-51
2022/11/07 07:46:12;;;;;;;5.13;2.90;;;10.30;99.90;;;;;;5073824;28;20728;-50
2022/11/07 07:48:37;;;;;;;3.60;2.70;;;10.30;99.90;;;;;;5073644;28;20078;-51
2022/11/07 07:51:03;;;;;;;3.22;2.15;;;10.40;99.90;;;;;;5074121;28;20441;-50
2022/11/07 07:53:28;;;;;;;4.80;3.95;;;10.40;99.90;;;;;;5073593;28;20040;-50
2022/11/07 07:55:56;;;;;;;7.50;5.75;;;10.50;99.90;;;;;;5073524;28;20029;-50
2022/11/07 07:58:23;;;;;;;6.70;4.47;;;10.60;99.90;;;;;;5073136;28;20391;-50
2022/11/07 08:00:56;;;;;;;6.43;4.75;;;10.60;99.90;;;;;;5072802;28;20027;-51
2022/11/07 08:03:22;;;;;;;6.20;4.90;;;10.90;99.90;;;;;;5089138;28;20047;-50
2022/11/07 08:05:53;;;;;;;5.47;3.67;;;11.00;99.90;;;;;;5093524;28;20021;-49
2022/11/07 08:08:19;;;;;;;4.15;2.97;;;11.10;99.90;;;;;;5093485;28;20396;-52
2022/11/07 08:10:44;;;;;;;7.13;4.75;;;11.20;99.90;;;;;;5092066;28;20451;-51
2022/11/07 08:13:10;;;;;;;2.92;2.60;;;11.40;99.90;;;;;;5081463;28;20064;-52
2022/11/07 08:15:36;;;;;;;22.75;12.63;;;11.40;99.90;;;;;;5083393;28;20476;-49
2022/11/07 08:18:03;;;;;;;13.52;8.25;;;11.50;99.90;;;;;;5072017;28;20395;-49
2022/11/07 08:20:28;;;;;;;1.80;1.70;;;11.60;99.90;;;;;;5072343;28;20104;-49
2022/11/07 08:23:05;;;;;;;2.80;1.80;;;11.70;99.90;;;;;;5072207;28;20100;-52
2022/11/07 08:25:31;;;;;;;1.92;1.80;;;11.90;99.90;;;;;;5072174;28;20031;-52
2022/11/07 08:27:57;;;;;;;2.83;1.70;;;12.00;99.90;;;;;;5072436;28;20035;-49
2022/11/07 08:30:22;;;;;;;2.30;1.60;;;12.00;99.90;;;;;;5072827;28;20025;-49
2022/11/07 08:32:48;;;;;;;1.85;1.75;;;12.20;99.90;;;;;;5072996;28;20022;-50
2022/11/07 08:35:14;;;;;;;2.42;1.88;;;12.50;99.90;;;;;;5072748;28;20487;-49
2022/11/07 08:37:39;;;;;;;3.83;1.60;;;12.60;99.90;;;;;;5071297;28;20020;-50
2022/11/07 08:40:06;;;;;;;1.50;1.40;;;12.60;99.90;;;;;;5072862;28;20014;-49
2022/11/07 08:42:31;;;;;;;2.47;2.28;;;12.80;99.90;;;;;;5072673;28;20047;-51
2022/11/07 08:44:57;;;;;;;5.18;1.95;;;12.80;99.90;;;;;;5072779;28;20448;-50
2022/11/07 08:47:23;;;;;;;1.83;1.73;;;13.00;99.90;;;;;;5072493;28;20040;-50
2022/11/07 08:49:48;;;;;;;3.42;2.28;;;13.00;99.90;;;;;;5072609;28;20040;-57
2022/11/07 08:52:14;;;;;;;3.22;1.73;;;13.20;99.90;;;;;;5072630;28;20033;-53
2022/11/07 08:54:40;;;;;;;7.03;2.20;;;13.10;99.90;;;;;;5072447;28;20036;-50
2022/11/07 08:57:05;;;;;;;2.25;1.75;;;13.20;99.90;;;;;;5072468;28;20032;-49
2022/11/07 08:59:31;;;;;;;3.20;1.92;;;13.00;99.40;;;;;;5072222;28;20024;-50
2022/11/07 09:01:56;;;;;;;2.67;2.05;;;12.80;99.00;;;;;;5072292;28;20025;-50
2022/11/07 09:04:22;;;;;;;2.22;2.00;;;13.00;99.90;;;;;;5072260;28;20031;-51
2022/11/07 09:06:48;;;;;;;1.90;1.70;;;13.10;99.90;;;;;;5072388;28;20391;-49
2022/11/07 09:09:13;;;;;;;1.50;1.40;;;13.00;99.30;;;;;;5072183;28;20045;-52
2022/11/07 09:11:41;;;;;;;3.78;1.90;;;13.30;99.90;;;;;;5072129;28;20036;-49
2022/11/07 09:14:06;;;;;;;1.70;1.60;;;13.50;99.90;;;;;;5072265;28;20016;-53
2022/11/07 09:16:32;;;;;;;2.50;1.92;;;13.60;99.90;;;;;;5071991;28;20020;-49
2022/11/07 09:18:58;;;;;;;1.77;1.58;;;13.80;99.90;;;;;;5072122;28;20024;-51
2022/11/07 09:21:23;;;;;;;6.43;1.65;;;14.00;99.40;;;;;;5071881;28;20024;-52
2022/11/07 09:23:50;;;;;;;21.08;10.43;;;14.10;99.70;;;;;;5071903;28;20029;-50
2022/11/07 09:26:16;;;;;;;3.13;2.10;;;14.00;99.90;;;;;;5071448;28;20419;-51
2022/11/07 09:28:41;;;;;;;17.02;2.88;;;14.30;99.00;;;;;;5070633;28;20029;-50
2022/11/07 09:31:07;;;;;;;7.03;3.30;;;14.00;99.90;;;;;;5070227;28;20024;-50
2022/11/07 09:33:32;;;;;;;4.78;3.13;;;14.40;99.90;;;;;;5070260;28;20028;-51
2022/11/07 09:36:00;;;;;;;2.65;2.08;;;14.60;99.50;;;;;;5070290;28;20077;-49
2022/11/07 09:38:26;;;;;;;5.72;2.03;;;15.90;96.70;;;;;;5070477;28;20029;-53
2022/11/07 09:41:00;;;;;;;2.33;2.13;;;17.20;95.60;;;;;;5070487;28;20385;-49
2022/11/07 09:44:03;;;;;;;2.65;1.67;;;18.20;93.80;;;;;;5069718;28;20051;-51
2022/11/07 09:46:54;;;;;;;2.28;1.60;;;18.90;92.20;;;;;;5070064;28;20392;-51
2022/11/07 09:49:44;;;;;;;3.10;2.03;;;18.90;90.20;;;;;;5070274;28;20031;-50
2022/11/07 09:52:21;;;;;;;5.53;2.30;;;19.30;90.10;;;;;;5069929;28;20021;-50
2022/11/07 09:54:59;;;;;;;3.05;2.03;;;19.00;85.90;;;;;;5069584;28;20032;-50
2022/11/07 09:57:26;;;;;;;5.95;2.60;;;18.90;87.30;;;;;;5069893;28;20099;-49
2022/11/07 09:59:56;;;;;;;2.17;1.58;;;18.50;88.90;;;;;;5070329;28;20028;-50
2022/11/07 10:02:28;;;;;;;2.50;1.92;;;20.00;83.80;;;;;;5070059;28;20048;-50
2022/11/07 10:04:59;;;;;;;2.20;1.75;;;19.70;81.00;;;;;;5070294;28;20234;-50
2022/11/07 10:07:48;;;;;;;2.67;1.60;;;19.20;81.70;;;;;;5070318;28;20107;-52
2022/11/07 10:10:34;;;;;;;3.05;1.50;;;20.50;81.10;;;;;;5070010;28;20036;-49
2022/11/07 10:13:38;;;;;;;5.43;1.92;;;19.70;78.70;;;;;;5070143;28;20021;-50
2022/11/07 10:16:22;;;;;;;3.60;1.25;;;19.20;81.10;;;;;;5070118;28;20272;-50
2022/11/07 10:18:54;;;;;;;0.73;0.70;;;20.00;82.60;;;;;;5069915;28;20056;-50
2022/11/07 10:21:45;;;;;;;1.52;1.20;;;20.50;76.30;;;;;;5069989;28;20048;-50
2022/11/07 10:24:32;;;;;;;6.78;1.63;;;20.40;77.00;;;;;;5069668;28;20017;-49
2022/11/07 10:27:00;;;;;;;5.00;1.35;;;18.90;76.30;;;;;;5069268;28;20543;-51
2022/11/07 10:29:34;;;;;;;1.52;0.80;;;19.00;79.10;;;;;;5070206;28;20033;-51
2022/11/07 10:32:27;;;;;;;4.07;1.90;;;19.60;79.20;;;;;;5070193;28;20079;-49
2022/11/07 10:34:56;;;;;;;9.10;1.33;;;19.70;79.60;;;;;;5069962;28;20024;-50
2022/11/07 10:37:23;;;;;;;1.02;0.85;;;19.30;79.70;;;;;;5068567;28;20024;-49
2022/11/07 10:39:48;;;;;;;2.33;1.30;;;19.30;77.30;;;;;;5069103;28;20074;-49
2022/11/07 10:42:25;;;;;;;2.50;1.48;;;19.00;81.20;;;;;;5069907;28;20471;-51
2022/11/07 10:44:54;;;;;;;3.13;1.05;;;18.10;79.70;;;;;;5069890;28;20074;-49
2022/11/07 10:47:23;;;;;;;0.80;0.80;;;17.60;82.10;;;;;;5069733;28;20027;-52
2022/11/07 10:50:17;;;;;;;2.30;0.90;;;18.40;79.30;;;;;;5069830;28;20024;-49
2022/11/07 10:52:50;;;;;;;;;;;18.60;78.40;;;;;;5060354;28;20048;-49
2022/11/07 10:55:16;;;;;;;5.38;1.10;;;19.40;79.50;;;;;;5071025;28;20264;-49
2022/11/07 10:57:45;;;;;;;2.15;1.35;;;20.00;74.90;;;;;;5073661;28;20484;-51
2022/11/07 11:00:26;;;;;;;4.20;2.63;;;20.10;74.50;;;;;;5073548;28;20032;-52
2022/11/07 11:02:54;;;;;;;3.70;1.70;;;22.20;74.50;;;;;;5073370;28;20040;-49
2022/11/07 11:05:41;;;;;;;3.40;1.58;;;22.10;71.70;;;;;;5073498;28;20021;-51
2022/11/07 11:08:18;;;;;;;3.80;1.33;;;22.70;68.00;;;;;;5071938;28;20121;-51
2022/11/07 11:10:44;;;;;;;10.35;5.78;;;22.80;66.70;;;;;;5071840;28;20032;-51
2022/11/07 11:13:30;;;;;;;1.80;0.90;;;22.30;63.60;;;;;;5073253;28;20444;-50
2022/11/07 11:16:00;;;;;;;2.92;1.75;;;22.20;65.70;;;;;;5070850;28;20028;-50
2022/11/07 11:18:25;;;;;;;1.98;1.33;;;22.10;64.10;;;;;;5072889;28;20025;-50
2022/11/07 11:21:01;;;;;;;5.25;2.83;;;22.30;64.60;;;;;;5071736;28;20021;-50
2022/11/07 11:23:30;;;;;;;4.97;1.42;;;23.20;59.90;;;;;;5072829;28;20498;-49
2022/11/07 11:26:24;;;;;;;2.80;1.50;;;22.10;62.80;;;;;;5072956;28;20025;-51
2022/11/07 11:29:00;;;;;;;5.05;1.42;;;22.90;62.20;;;;;;5071631;28;20412;-51
2022/11/07 11:31:38;;;;;;;2.47;1.13;;;23.10;59.50;;;;;;5072558;28;20028;-51
2022/11/07 11:34:25;;;;;;;4.72;1.55;;;23.90;59.60;;;;;;5072833;28;20060;-50
2022/11/07 11:37:01;;;;;;;3.33;0.80;;;22.90;57.60;;;;;;5068528;28;20082;-50
2022/11/07 11:39:36;;;;;;;1.85;0.80;;;23.70;56.60;;;;;;5072577;28;20047;-49
2022/11/07 11:42:03;;;;;;;4.43;0.90;;;24.70;56.30;;;;;;5072573;28;20428;-50
2022/11/07 11:44:36;;;;;;;2.97;1.65;;;25.40;57.50;;;;;;5072507;28;20013;-50
2022/11/07 11:47:20;;;;;;;2.90;1.08;;;26.10;52.00;;;;;;5072852;28;20100;-50
2022/11/07 11:49:49;;;;;;;;;;;25.20;50.60;;;;;;5072982;28;20025;-51
2022/11/07 11:52:24;;;;;;;3.45;0.80;;;25.20;51.90;;;;;;5073049;28;19904;-50
2022/11/07 11:54:51;;;;;;;1.98;0.60;;;26.00;53.40;;;;;;5071017;28;20492;-51
2022/11/07 11:57:26;;;;;;;1.20;0.65;;;25.40;49.70;;;;;;5072503;28;20025;-50
2022/11/07 12:00:15;;;;;;;6.47;0.93;;;24.30;50.80;;;;;;5072327;28;20021;-50
2022/11/07 12:03:13;;;;;;;1.23;0.60;;;23.90;51.80;;;;;;5069025;28;20037;-50
2022/11/07 12:05:58;;;;;;;1.38;0.60;;;25.30;52.70;;;;;;5071638;28;20067;-49
2022/11/07 12:08:37;;;;;;;1.35;1.00;;;26.30;50.40;;;;;;5072149;28;20507;-50
2022/11/07 12:11:14;;;;;;;2.13;1.45;;;25.00;48.90;;;;;;5072308;28;20377;-49
2022/11/07 12:13:54;;;;;;;6.50;4.13;;;23.80;50.30;;;;;;5071894;28;20039;-49
2022/11/07 12:16:28;;;;;;;0.90;0.57;;;24.10;50.40;;;;;;5072848;28;20487;-52
2022/11/07 12:19:11;;;;;;;2.47;0.57;;;25.90;49.10;;;;;;5073301;28;20373;-50
2022/11/07 12:21:49;;;;;;;2.25;1.65;;;26.30;49.40;;;;;;5071422;28;20044;-56
2022/11/07 12:24:23;;;;;;;2.03;1.33;;;24.70;48.70;;;;;;5072983;28;20404;-52
2022/11/07 12:26:58;;;;;;;2.35;0.70;;;24.90;48.30;;;;;;5073193;28;20020;-51
2022/11/07 12:29:42;;;;;;;2.22;0.98;;;25.40;49.10;;;;;;5072925;28;20507;-50
2022/11/07 12:32:07;;;;;;;1.70;0.77;;;25.20;47.90;;;;;;5072846;28;20082;-52
2022/11/07 12:34:42;;;;;;;3.47;1.42;;;24.20;50.10;;;;;;5072649;28;20032;-50
2022/11/07 12:37:19;;;;;;;0.35;0.35;;;23.10;52.00;;;;;;5072986;28;20024;-51
2022/11/07 12:40:12;;;;;;;4.43;0.57;;;25.20;50.10;;;;;;5072852;28;20032;-51
2022/11/07 12:42:41;;;;;;;;;;;25.70;48.60;;;;;;5071906;28;20017;-51
2022/11/07 12:45:22;;;;;;;2.95;0.88;;;26.70;46.00;;;;;;5072915;28;20314;-50
2022/11/07 12:48:16;;;;;;;1.15;0.63;;;26.10;46.50;;;;;;5072825;28;20012;-50
2022/11/07 12:51:03;;;;;;;;;;;26.60;47.40;;;;;;5073015;28;20549;-53
2022/11/07 12:53:35;;;;;;;4.75;0.60;;;26.00;48.10;;;;;;5072355;28;19962;-50
2022/11/07 12:56:02;;;;;;;2.35;0.90;;;26.00;47.30;;;;;;5072480;28;20021;-51
2022/11/07 12:58:32;;;;;;;2.50;1.00;;;26.40;47.40;;;;;;5072321;28;20025;-50
2022/11/07 13:00:59;;;;;;;2.25;0.80;;;26.50;45.60;;;;;;5072557;28;20048;-51
2022/11/07 13:03:31;;;;;;;2.38;1.10;;;25.50;47.10;;;;;;5072306;28;20483;-54
2022/11/07 13:06:07;;;;;;;1.17;0.50;;;26.00;45.60;;;;;;5072049;28;20404;-51
2022/11/07 13:08:47;;;;;;;4.35;0.63;;;27.60;46.00;;;;;;5071824;28;20052;-51
2022/11/07 13:11:28;;;;;;;1.33;0.75;;;28.40;44.80;;;;;;5072098;28;20032;-50
2022/11/07 13:14:12;;;;;;;1.38;0.50;;;27.30;43.90;;;;;;5072179;28;20024;-55
2022/11/07 13:17:01;;;;;;;2.83;0.93;;;27.60;44.40;;;;;;5072102;28;20525;-52